sensor_id;sensor_type;location;lat;lon;timestamp;temperature;humidity
71436;SHT31;59251;51.326;12.370;2023-08-07T00:01:39;14.60;99.99
71436;SHT31;59251;51.326;12.370;2023-08-07T00:04:05;14.63;99.99
71436;SHT31;59251;51.326;12.370;2023-08-07T00:06:33;14.64;99.99
71436;SHT31;59251;51.326;12.370;2023-08-07T00:09:00;14.63;99.99
71436;SHT31;59251;51.326;12.370;2023-08-07T00:11:26;14.60;99.99
71436;SHT31;59251;51.326;12.370;2023-08-07T00:13:54;14.50;99.99
71436;SHT31;59251;51.326;12.370;2023-08-07T00:16:21;14.52;99.99
71436;SHT31;59251;51.326;12.370;2023-08-07T00:18:47;14.56;99.99
71436;SHT31;59251;51.326;12.370;2023-08-07T00:21:14;14.55;99.99
71436;SHT31;59251;51.326;12.370;2023-08-07T00:23:42;14.57;99.99
71436;SHT31;59251;51.326;12.370;2023-08-07T00:26:09;14.56;99.99
71436;SHT31;59251;51.326;12.370;2023-08-07T00:28:35;14.55;99.99
71436;SHT31;59251;51.326;12.370;2023-08-07T00:31:02;14.57;99.99
71436;SHT31;59251;51.326;12.370;2023-08-07T00:33:29;14.57;99.99
71436;SHT31;59251;51.326;12.370;2023-08-07T00:35:55;14.63;99.99
71436;SHT31;59251;51.326;12.370;2023-08-07T00:38:22;14.62;99.99
71436;SHT31;59251;51.326;12.370;2023-08-07T00:40:50;14.63;99.99
71436;SHT31;59251;51.326;12.370;2023-08-07T00:43:17;14.64;99.99
71436;SHT31;59251;51.326;12.370;2023-08-07T00:45:46;14.62;99.99
71436;SHT31;59251;51.326;12.370;2023-08-07T00:48:14;14.70;99.99
71436;SHT31;59251;51.326;12.370;2023-08-07T00:50:44;14.73;99.99
71436;SHT31;59251;51.326;12.370;2023-08-07T00:53:11;14.69;99.99
71436;SHT31;59251;51.326;12.370;2023-08-07T00:55:38;14.69;99.99
71436;SHT31;59251;51.326;12.370;2023-08-07T00:58:06;14.74;99.99
71436;SHT31;59251;51.326;12.370;2023-08-07T01:00:32;14.72;99.99
71436;SHT31;59251;51.326;12.370;2023-08-07T01:03:01;14.72;99.99
71436;SHT31;59251;51.326;12.370;2023-08-07T01:05:28;14.70;99.99
71436;SHT31;59251;51.326;12.370;2023-08-07T01:07:55;14.73;99.99
71436;SHT31;59251;51.326;12.370;2023-08-07T01:10:26;14.67;99.99
71436;SHT31;59251;51.326;12.370;2023-08-07T01:13:08;14.64;99.99
71436;SHT31;59251;51.326;12.370;2023-08-07T01:15:39;14.60;99.99
71436;SHT31;59251;51.326;12.370;2023-08-07T01:18:07;14.56;99.99
71436;SHT31;59251;51.326;12.370;2023-08-07T01:20:34;14.59;99.99
71436;SHT31;59251;51.326;12.370;2023-08-07T01:23:02;14.62;99.99
71436;SHT31;59251;51.326;12.370;2023-08-07T01:25:29;14.59;99.99
71436;SHT31;59251;51.326;12.370;2023-08-07T01:28:02;14.56;99.99
71436;SHT31;59251;51.326;12.370;2023-08-07T01:30:33;14.55;99.99
71436;SHT31;59251;51.326;12.370;2023-08-07T01:33:09;14.60;99.99
71436;SHT31;59251;51.326;12.370;2023-08-07T01:35:41;14.63;99.99
71436;SHT31;59251;51.326;12.370;2023-08-07T01:38:11;14.63;99.99
71436;SHT31;59251;51.326;12.370;2023-08-07T01:40:40;14.59;99.99
71436;SHT31;59251;51.326;12.370;2023-08-07T01:43:07;14.59;99.99
71436;SHT31;59251;51.326;12.370;2023-08-07T01:45:34;14.57;99.99
71436;SHT31;59251;51.326;12.370;2023-08-07T01:48:01;14.55;99.99
71436;SHT31;59251;51.326;12.370;2023-08-07T01:50:28;14.59;99.99
71436;SHT31;59251;51.326;12.370;2023-08-07T01:52:55;14.56;99.99
71436;SHT31;59251;51.326;12.370;2023-08-07T01:55:24;14.55;99.99
71436;SHT31;59251;51.326;12.370;2023-08-07T01:57:51;14.50;99.99
71436;SHT31;59251;51.326;12.370;2023-08-07T02:00:18;14.55;99.99
71436;SHT31;59251;51.326;12.370;2023-08-07T02:02:45;14.57;99.99
71436;SHT31;59251;51.326;12.370;2023-08-07T02:05:12;14.50;99.99
71436;SHT31;59251;51.326;12.370;2023-08-07T02:07:39;14.49;99.99
71436;SHT31;59251;51.326;12.370;2023-08-07T02:10:06;14.56;99.99
71436;SHT31;59251;51.326;12.370;2023-08-07T02:12:35;14.57;99.99
71436;SHT31;59251;51.326;12.370;2023-08-07T02:15:03;14.46;99.99
71436;SHT31;59251;51.326;12.370;2023-08-07T02:17:29;14.52;99.99
71436;SHT31;59251;51.326;12.370;2023-08-07T02:19:56;14.50;99.99
71436;SHT31;59251;51.326;12.370;2023-08-07T02:22:23;14.50;99.99
71436;SHT31;59251;51.326;12.370;2023-08-07T02:24:50;14.46;99.99
71436;SHT31;59251;51.326;12.370;2023-08-07T02:27:17;14.42;99.99
71436;SHT31;59251;51.326;12.370;2023-08-07T02:29:47;14.32;99.99
71436;SHT31;59251;51.326;12.370;2023-08-07T02:32:16;14.26;99.99
71436;SHT31;59251;51.326;12.370;2023-08-07T02:34:44;14.22;99.99
71436;SHT31;59251;51.326;12.370;2023-08-07T02:37:11;14.15;99.99
71436;SHT31;59251;51.326;12.370;2023-08-07T02:39:38;14.12;99.99
71436;SHT31;59251;51.326;12.370;2023-08-07T02:42:05;14.22;99.99
71436;SHT31;59251;51.326;12.370;2023-08-07T02:44:32;14.22;99.99
71436;SHT31;59251;51.326;12.370;2023-08-07T02:47:00;14.21;99.99
71436;SHT31;59251;51.326;12.370;2023-08-07T02:49:26;14.18;99.99
71436;SHT31;59251;51.326;12.370;2023-08-07T02:51:53;14.19;99.99
71436;SHT31;59251;51.326;12.370;2023-08-07T02:54:20;14.35;99.99
71436;SHT31;59251;51.326;12.370;2023-08-07T02:56:47;14.36;99.99
71436;SHT31;59251;51.326;12.370;2023-08-07T02:59:14;14.39;99.99
71436;SHT31;59251;51.326;12.370;2023-08-07T03:01:41;14.42;99.99
71436;SHT31;59251;51.326;12.370;2023-08-07T03:04:09;14.39;99.99
71436;SHT31;59251;51.326;12.370;2023-08-07T03:06:36;14.37;99.99
71436;SHT31;59251;51.326;12.370;2023-08-07T03:09:03;14.39;99.99
71436;SHT31;59251;51.326;12.370;2023-08-07T03:11:30;14.42;99.99
71436;SHT31;59251;51.326;12.370;2023-08-07T03:13:56;14.49;99.99
71436;SHT31;59251;51.326;12.370;2023-08-07T03:16:23;14.49;99.99
71436;SHT31;59251;51.326;12.370;2023-08-07T03:18:50;14.53;99.99
71436;SHT31;59251;51.326;12.370;2023-08-07T03:21:18;14.50;99.99
71436;SHT31;59251;51.326;12.370;2023-08-07T03:23:45;14.50;99.99
71436;SHT31;59251;51.326;12.370;2023-08-07T03:26:12;14.53;99.99
71436;SHT31;59251;51.326;12.370;2023-08-07T03:28:39;14.52;99.99
71436;SHT31;59251;51.326;12.370;2023-08-07T03:31:06;14.62;99.99
71436;SHT31;59251;51.326;12.370;2023-08-07T03:33:35;14.62;99.99
71436;SHT31;59251;51.326;12.370;2023-08-07T03:36:01;14.59;99.99
71436;SHT31;59251;51.326;12.370;2023-08-07T03:38:29;14.57;99.99
71436;SHT31;59251;51.326;12.370;2023-08-07T03:40:57;14.56;99.99
71436;SHT31;59251;51.326;12.370;2023-08-07T03:43:24;14.56;99.99
71436;SHT31;59251;51.326;12.370;2023-08-07T03:45:54;14.42;99.99
71436;SHT31;59251;51.326;12.370;2023-08-07T03:48:22;14.33;99.99
71436;SHT31;59251;51.326;12.370;2023-08-07T03:50:49;14.32;99.99
71436;SHT31;59251;51.326;12.370;2023-08-07T03:53:17;14.26;99.99
71436;SHT31;59251;51.326;12.370;2023-08-07T03:55:50;14.32;99.99
71436;SHT31;59251;51.326;12.370;2023-08-07T03:58:19;14.25;99.99
71436;SHT31;59251;51.326;12.370;2023-08-07T04:00:46;14.19;99.99
71436;SHT31;59251;51.326;12.370;2023-08-07T04:03:13;14.24;99.99
71436;SHT31;59251;51.326;12.370;2023-08-07T04:05:39;14.24;99.99
71436;SHT31;59251;51.326;12.370;2023-08-07T04:08:06;14.14;99.99
71436;SHT31;59251;51.326;12.370;2023-08-07T04:10:33;14.16;99.99
71436;SHT31;59251;51.326;12.370;2023-08-07T04:13:01;14.21;99.99
71436;SHT31;59251;51.326;12.370;2023-08-07T04:15:28;14.18;99.99
71436;SHT31;59251;51.326;12.370;2023-08-07T04:17:55;14.15;99.99
71436;SHT31;59251;51.326;12.370;2023-08-07T04:20:22;14.15;99.99
71436;SHT31;59251;51.326;12.370;2023-08-07T04:22:49;14.15;99.99
71436;SHT31;59251;51.326;12.370;2023-08-07T04:25:16;14.24;99.99
71436;SHT31;59251;51.326;12.370;2023-08-07T04:27:43;14.24;99.99
71436;SHT31;59251;51.326;12.370;2023-08-07T04:30:12;14.22;99.99
71436;SHT31;59251;51.326;12.370;2023-08-07T04:32:38;14.22;99.99
71436;SHT31;59251;51.326;12.370;2023-08-07T04:35:06;14.21;99.99
71436;SHT31;59251;51.326;12.370;2023-08-07T04:37:33;14.24;99.99
71436;SHT31;59251;51.326;12.370;2023-08-07T04:40:00;14.24;99.99
71436;SHT31;59251;51.326;12.370;2023-08-07T04:42:27;14.29;99.99
71436;SHT31;59251;51.326;12.370;2023-08-07T04:44:53;14.33;99.99
71436;SHT31;59251;51.326;12.370;2023-08-07T04:47:21;14.32;99.99
71436;SHT31;59251;51.326;12.370;2023-08-07T04:49:48;14.26;99.99
71436;SHT31;59251;51.326;12.370;2023-08-07T04:52:15;14.37;99.99
71436;SHT31;59251;51.326;12.370;2023-08-07T04:54:42;14.33;99.99
71436;SHT31;59251;51.326;12.370;2023-08-07T04:57:08;14.39;99.99
71436;SHT31;59251;51.326;12.370;2023-08-07T04:59:35;14.43;99.99
71436;SHT31;59251;51.326;12.370;2023-08-07T05:02:02;14.43;99.99
71436;SHT31;59251;51.326;12.370;2023-08-07T05:04:30;14.47;99.99
71436;SHT31;59251;51.326;12.370;2023-08-07T05:06:57;14.47;99.99
71436;SHT31;59251;51.326;12.370;2023-08-07T05:09:23;14.50;99.52
71436;SHT31;59251;51.326;12.370;2023-08-07T05:11:50;14.49;99.87
71436;SHT31;59251;51.326;12.370;2023-08-07T05:14:17;14.57;99.86
71436;SHT31;59251;51.326;12.370;2023-08-07T05:16:43;14.63;99.41
71436;SHT31;59251;51.326;12.370;2023-08-07T05:19:10;14.69;99.34
71436;SHT31;59251;51.326;12.370;2023-08-07T05:21:38;14.70;99.16
71436;SHT31;59251;51.326;12.370;2023-08-07T05:24:05;14.69;99.67
71436;SHT31;59251;51.326;12.370;2023-08-07T05:26:31;14.72;98.99
71436;SHT31;59251;51.326;12.370;2023-08-07T05:28:58;14.66;99.55
71436;SHT31;59251;51.326;12.370;2023-08-07T05:31:25;14.66;98.98
71436;SHT31;59251;51.326;12.370;2023-08-07T05:33:51;14.66;99.49
71436;SHT31;59251;51.326;12.370;2023-08-07T05:36:18;14.81;98.99
71436;SHT31;59251;51.326;12.370;2023-08-07T05:38:46;14.79;99.18
71436;SHT31;59251;51.326;12.370;2023-08-07T05:41:13;14.84;99.06
71436;SHT31;59251;51.326;12.370;2023-08-07T05:43:39;14.90;98.21
71436;SHT31;59251;51.326;12.370;2023-08-07T05:46:06;14.95;98.07
71436;SHT31;59251;51.326;12.370;2023-08-07T05:48:33;14.95;97.88
71436;SHT31;59251;51.326;12.370;2023-08-07T05:50:59;14.98;97.54
71436;SHT31;59251;51.326;12.370;2023-08-07T05:53:26;15.04;96.33
71436;SHT31;59251;51.326;12.370;2023-08-07T05:55:54;15.17;96.86
71436;SHT31;59251;51.326;12.370;2023-08-07T05:58:21;15.32;96.53
71436;SHT31;59251;51.326;12.370;2023-08-07T06:00:48;15.43;96.25
71436;SHT31;59251;51.326;12.370;2023-08-07T06:03:14;15.34;95.79
71436;SHT31;59251;51.326;12.370;2023-08-07T06:05:41;15.34;95.86
71436;SHT31;59251;51.326;12.370;2023-08-07T06:08:08;15.32;95.53
71436;SHT31;59251;51.326;12.370;2023-08-07T06:10:35;15.43;95.54
71436;SHT31;59251;51.326;12.370;2023-08-07T06:13:03;15.32;95.05
71436;SHT31;59251;51.326;12.370;2023-08-07T06:15:32;15.35;95.50
71436;SHT31;59251;51.326;12.370;2023-08-07T06:17:59;15.32;95.23
71436;SHT31;59251;51.326;12.370;2023-08-07T06:20:25;15.38;95.25
71436;SHT31;59251;51.326;12.370;2023-08-07T06:22:52;15.36;94.51
71436;SHT31;59251;51.326;12.370;2023-08-07T06:25:19;15.39;94.88
71436;SHT31;59251;51.326;12.370;2023-08-07T06:27:46;15.41;94.96
71436;SHT31;59251;51.326;12.370;2023-08-07T06:30:14;15.46;94.18
71436;SHT31;59251;51.326;12.370;2023-08-07T06:32:40;15.53;94.42
71436;SHT31;59251;51.326;12.370;2023-08-07T06:35:08;15.60;94.28
71436;SHT31;59251;51.326;12.370;2023-08-07T06:37:35;15.71;93.65
71436;SHT31;59251;51.326;12.370;2023-08-07T06:40:01;15.80;93.58
71436;SHT31;59251;51.326;12.370;2023-08-07T06:42:28;15.91;93.46
71436;SHT31;59251;51.326;12.370;2023-08-07T06:44:56;16.01;93.36
71436;SHT31;59251;51.326;12.370;2023-08-07T06:47:24;16.14;92.78
71436;SHT31;59251;51.326;12.370;2023-08-07T06:49:51;16.22;92.34
71436;SHT31;59251;51.326;12.370;2023-08-07T06:52:17;16.40;91.33
71436;SHT31;59251;51.326;12.370;2023-08-07T06:54:44;16.44;90.80
71436;SHT31;59251;51.326;12.370;2023-08-07T06:57:11;16.58;90.47
71436;SHT31;59251;51.326;12.370;2023-08-07T06:59:38;16.49;90.11
71436;SHT31;59251;51.326;12.370;2023-08-07T07:02:05;16.41;90.20
71436;SHT31;59251;51.326;12.370;2023-08-07T07:04:34;16.38;90.27
71436;SHT31;59251;51.326;12.370;2023-08-07T07:07:02;16.27;90.90
71436;SHT31;59251;51.326;12.370;2023-08-07T07:09:28;16.41;89.70
71436;SHT31;59251;51.326;12.370;2023-08-07T07:11:55;16.55;89.57
71436;SHT31;59251;51.326;12.370;2023-08-07T07:14:23;16.69;89.26
71436;SHT31;59251;51.326;12.370;2023-08-07T07:16:50;16.80;88.48
71436;SHT31;59251;51.326;12.370;2023-08-07T07:19:16;16.93;88.26
71436;SHT31;59251;51.326;12.370;2023-08-07T07:21:45;17.00;87.88
71436;SHT31;59251;51.326;12.370;2023-08-07T07:24:11;17.02;87.68
71436;SHT31;59251;51.326;12.370;2023-08-07T07:26:38;17.12;87.84
71436;SHT31;59251;51.326;12.370;2023-08-07T07:29:05;17.07;87.31
71436;SHT31;59251;51.326;12.370;2023-08-07T07:31:32;17.02;87.27
71436;SHT31;59251;51.326;12.370;2023-08-07T07:33:59;17.06;87.57
71436;SHT31;59251;51.326;12.370;2023-08-07T07:36:25;17.02;87.28
71436;SHT31;59251;51.326;12.370;2023-08-07T07:38:53;16.90;87.18
71436;SHT31;59251;51.326;12.370;2023-08-07T07:41:22;16.94;87.08
71436;SHT31;59251;51.326;12.370;2023-08-07T07:43:48;17.09;87.18
71436;SHT31;59251;51.326;12.370;2023-08-07T07:46:15;17.14;86.96
71436;SHT31;59251;51.326;12.370;2023-08-07T07:48:42;16.94;87.42
71436;SHT31;59251;51.326;12.370;2023-08-07T07:51:09;17.07;87.34
71436;SHT31;59251;51.326;12.370;2023-08-07T07:53:36;17.09;87.16
71436;SHT31;59251;51.326;12.370;2023-08-07T07:56:04;16.94;87.35
71436;SHT31;59251;51.326;12.370;2023-08-07T07:58:31;16.77;87.61
71436;SHT31;59251;51.326;12.370;2023-08-07T08:00:57;16.90;86.71
71436;SHT31;59251;51.326;12.370;2023-08-07T08:03:24;17.07;86.62
71436;SHT31;59251;51.326;12.370;2023-08-07T08:05:51;17.12;86.20
71436;SHT31;59251;51.326;12.370;2023-08-07T08:08:18;17.24;85.66
71436;SHT31;59251;51.326;12.370;2023-08-07T08:10:45;17.65;84.78
71436;SHT31;59251;51.326;12.370;2023-08-07T08:13:14;17.81;84.19
71436;SHT31;59251;51.326;12.370;2023-08-07T08:15:41;17.64;84.22
71436;SHT31;59251;51.326;12.370;2023-08-07T08:18:08;17.50;84.30
71436;SHT31;59251;51.326;12.370;2023-08-07T08:20:34;17.72;84.03
71436;SHT31;59251;51.326;12.370;2023-08-07T08:23:01;17.62;83.90
71436;SHT31;59251;51.326;12.370;2023-08-07T08:25:28;17.83;83.65
71436;SHT31;59251;51.326;12.370;2023-08-07T08:27:55;17.89;83.10
71436;SHT31;59251;51.326;12.370;2023-08-07T08:30:23;17.75;82.59
71436;SHT31;59251;51.326;12.370;2023-08-07T08:32:50;17.60;83.43
71436;SHT31;59251;51.326;12.370;2023-08-07T08:35:16;17.48;83.35
71436;SHT31;59251;51.326;12.370;2023-08-07T08:37:43;17.45;83.78
71436;SHT31;59251;51.326;12.370;2023-08-07T08:40:10;17.69;83.40
71436;SHT31;59251;51.326;12.370;2023-08-07T08:42:42;17.85;83.39
71436;SHT31;59251;51.326;12.370;2023-08-07T08:45:10;18.00;82.32
71436;SHT31;59251;51.326;12.370;2023-08-07T08:47:39;18.30;81.68
71436;SHT31;59251;51.326;12.370;2023-08-07T08:50:07;18.53;81.39
71436;SHT31;59251;51.326;12.370;2023-08-07T08:52:36;18.74;80.86
71436;SHT31;59251;51.326;12.370;2023-08-07T08:55:04;18.44;80.73
71436;SHT31;59251;51.326;12.370;2023-08-07T08:57:32;18.43;80.74
71436;SHT31;59251;51.326;12.370;2023-08-07T09:00:00;18.33;80.58
71436;SHT31;59251;51.326;12.370;2023-08-07T09:02:27;18.23;81.15
71436;SHT31;59251;51.326;12.370;2023-08-07T09:04:55;18.10;81.76
71436;SHT31;59251;51.326;12.370;2023-08-07T09:07:22;18.08;81.91
71436;SHT31;59251;51.326;12.370;2023-08-07T09:09:49;18.00;82.01
71436;SHT31;59251;51.326;12.370;2023-08-07T09:12:20;17.86;81.78
71436;SHT31;59251;51.326;12.370;2023-08-07T09:14:50;17.88;82.29
71436;SHT31;59251;51.326;12.370;2023-08-07T09:17:19;18.22;82.23
71436;SHT31;59251;51.326;12.370;2023-08-07T09:19:47;18.26;82.18
71436;SHT31;59251;51.326;12.370;2023-08-07T09:22:15;18.36;81.14
71436;SHT31;59251;51.326;12.370;2023-08-07T09:24:42;18.14;82.01
71436;SHT31;59251;51.326;12.370;2023-08-07T09:27:09;18.22;81.85
71436;SHT31;59251;51.326;12.370;2023-08-07T09:29:35;18.23;81.86
71436;SHT31;59251;51.326;12.370;2023-08-07T09:32:07;18.83;80.92
71436;SHT31;59251;51.326;12.370;2023-08-07T09:34:34;18.78;80.99
71436;SHT31;59251;51.326;12.370;2023-08-07T09:37:01;18.75;80.54
71436;SHT31;59251;51.326;12.370;2023-08-07T09:39:29;18.95;80.13
71436;SHT31;59251;51.326;12.370;2023-08-07T09:41:56;19.18;79.91
71436;SHT31;59251;51.326;12.370;2023-08-07T09:44:23;19.24;79.01
71436;SHT31;59251;51.326;12.370;2023-08-07T09:46:50;19.34;78.91
71436;SHT31;59251;51.326;12.370;2023-08-07T09:49:18;19.22;76.89
71436;SHT31;59251;51.326;12.370;2023-08-07T09:51:47;19.29;78.37
71436;SHT31;59251;51.326;12.370;2023-08-07T09:54:15;19.15;78.62
71436;SHT31;59251;51.326;12.370;2023-08-07T09:56:44;19.11;78.59
71436;SHT31;59251;51.326;12.370;2023-08-07T09:59:13;19.19;79.19
71436;SHT31;59251;51.326;12.370;2023-08-07T10:01:40;19.18;78.42
71436;SHT31;59251;51.326;12.370;2023-08-07T10:04:09;18.64;79.15
71436;SHT31;59251;51.326;12.370;2023-08-07T10:06:41;18.64;79.86
71436;SHT31;59251;51.326;12.370;2023-08-07T10:09:08;18.72;80.21
71436;SHT31;59251;51.326;12.370;2023-08-07T10:11:35;18.32;80.61
71436;SHT31;59251;51.326;12.370;2023-08-07T10:14:04;18.19;83.30
71436;SHT31;59251;51.326;12.370;2023-08-07T10:16:31;18.02;84.19
71436;SHT31;59251;51.326;12.370;2023-08-07T10:19:03;17.62;86.66
71436;SHT31;59251;51.326;12.370;2023-08-07T10:21:30;17.38;88.00
71436;SHT31;59251;51.326;12.370;2023-08-07T10:23:57;17.16;89.04
71436;SHT31;59251;51.326;12.370;2023-08-07T10:26:25;17.06;89.34
71436;SHT31;59251;51.326;12.370;2023-08-07T10:28:52;17.35;89.69
71436;SHT31;59251;51.326;12.370;2023-08-07T10:31:22;17.58;88.12
71436;SHT31;59251;51.326;12.370;2023-08-07T10:33:50;17.52;88.75
71436;SHT31;59251;51.326;12.370;2023-08-07T10:36:18;17.52;87.55
71436;SHT31;59251;51.326;12.370;2023-08-07T10:38:48;17.26;86.71
71436;SHT31;59251;51.326;12.370;2023-08-07T10:41:15;17.17;87.11
71436;SHT31;59251;51.326;12.370;2023-08-07T10:43:45;17.28;86.72
71436;SHT31;59251;51.326;12.370;2023-08-07T10:46:14;17.42;86.25
71436;SHT31;59251;51.326;12.370;2023-08-07T10:48:43;17.58;85.59
71436;SHT31;59251;51.326;12.370;2023-08-07T10:51:12;17.88;83.61
71436;SHT31;59251;51.326;12.370;2023-08-07T10:53:41;18.03;83.23
71436;SHT31;59251;51.326;12.370;2023-08-07T10:56:15;18.37;81.76
71436;SHT31;59251;51.326;12.370;2023-08-07T10:58:42;18.44;81.34
71436;SHT31;59251;51.326;12.370;2023-08-07T11:01:17;18.50;81.33
71436;SHT31;59251;51.326;12.370;2023-08-07T11:03:48;18.85;80.49
71436;SHT31;59251;51.326;12.370;2023-08-07T11:06:16;18.96;79.67
71436;SHT31;59251;51.326;12.370;2023-08-07T11:08:43;19.23;79.33
71436;SHT31;59251;51.326;12.370;2023-08-07T11:11:09;19.34;78.45
71436;SHT31;59251;51.326;12.370;2023-08-07T11:13:36;19.34;77.24
71436;SHT31;59251;51.326;12.370;2023-08-07T11:16:03;19.50;76.49
71436;SHT31;59251;51.326;12.370;2023-08-07T11:18:31;19.53;76.48
71436;SHT31;59251;51.326;12.370;2023-08-07T11:20:59;19.61;76.44
71436;SHT31;59251;51.326;12.370;2023-08-07T11:23:27;19.74;76.52
71436;SHT31;59251;51.326;12.370;2023-08-07T11:25:54;19.70;76.11
71436;SHT31;59251;51.326;12.370;2023-08-07T11:28:22;19.81;76.31
71436;SHT31;59251;51.326;12.370;2023-08-07T11:30:50;19.73;76.33
71436;SHT31;59251;51.326;12.370;2023-08-07T11:33:17;19.57;75.94
71436;SHT31;59251;51.326;12.370;2023-08-07T11:35:44;19.74;76.59
71436;SHT31;59251;51.326;12.370;2023-08-07T11:38:12;20.36;75.45
71436;SHT31;59251;51.326;12.370;2023-08-07T11:40:39;20.26;75.12
71436;SHT31;59251;51.326;12.370;2023-08-07T11:43:06;19.56;76.09
71436;SHT31;59251;51.326;12.370;2023-08-07T11:45:33;19.92;75.46
71436;SHT31;59251;51.326;12.370;2023-08-07T11:47:59;19.74;74.69
71436;SHT31;59251;51.326;12.370;2023-08-07T11:50:27;19.73;74.89
71436;SHT31;59251;51.326;12.370;2023-08-07T11:52:54;19.71;75.18
71436;SHT31;59251;51.326;12.370;2023-08-07T11:55:29;19.97;74.78
71436;SHT31;59251;51.326;12.370;2023-08-07T11:57:56;20.47;74.31
71436;SHT31;59251;51.326;12.370;2023-08-07T12:00:25;20.49;75.00
71436;SHT31;59251;51.326;12.370;2023-08-07T12:02:53;20.32;74.77
71436;SHT31;59251;51.326;12.370;2023-08-07T12:05:20;20.42;74.68
71436;SHT31;59251;51.326;12.370;2023-08-07T12:07:49;21.00;74.15
71436;SHT31;59251;51.326;12.370;2023-08-07T12:10:15;20.70;74.88
71436;SHT31;59251;51.326;12.370;2023-08-07T12:12:44;20.43;75.64
71436;SHT31;59251;51.326;12.370;2023-08-07T12:15:11;20.36;76.42
71436;SHT31;59251;51.326;12.370;2023-08-07T12:17:38;20.65;75.02
71436;SHT31;59251;51.326;12.370;2023-08-07T12:20:06;21.20;73.71
71436;SHT31;59251;51.326;12.370;2023-08-07T12:22:35;21.21;73.22
71436;SHT31;59251;51.326;12.370;2023-08-07T12:25:03;21.00;73.67
71436;SHT31;59251;51.326;12.370;2023-08-07T12:27:29;21.72;72.90
71436;SHT31;59251;51.326;12.370;2023-08-07T12:29:58;20.87;74.67
71436;SHT31;59251;51.326;12.370;2023-08-07T12:32:24;20.39;75.05
71436;SHT31;59251;51.326;12.370;2023-08-07T12:34:51;19.91;76.31
71436;SHT31;59251;51.326;12.370;2023-08-07T12:37:19;19.66;76.79
71436;SHT31;59251;51.326;12.370;2023-08-07T12:39:45;19.75;74.38
71436;SHT31;59251;51.326;12.370;2023-08-07T12:42:12;19.95;73.50
71436;SHT31;59251;51.326;12.370;2023-08-07T12:44:39;19.95;73.49
71436;SHT31;59251;51.326;12.370;2023-08-07T12:47:07;19.51;74.29
71436;SHT31;59251;51.326;12.370;2023-08-07T12:49:34;19.05;75.47
71436;SHT31;59251;51.326;12.370;2023-08-07T12:52:00;19.01;76.67
71436;SHT31;59251;51.326;12.370;2023-08-07T12:54:27;19.34;76.06
71436;SHT31;59251;51.326;12.370;2023-08-07T12:56:54;19.46;75.26
71436;SHT31;59251;51.326;12.370;2023-08-07T12:59:21;19.67;74.59
71436;SHT31;59251;51.326;12.370;2023-08-07T13:01:48;19.42;75.10
71436;SHT31;59251;51.326;12.370;2023-08-07T13:04:16;19.49;75.14
71436;SHT31;59251;51.326;12.370;2023-08-07T13:06:44;19.27;76.11
71436;SHT31;59251;51.326;12.370;2023-08-07T13:09:10;19.45;76.29
71436;SHT31;59251;51.326;12.370;2023-08-07T13:11:37;19.06;77.09
71436;SHT31;59251;51.326;12.370;2023-08-07T13:14:04;19.06;77.52
71436;SHT31;59251;51.326;12.370;2023-08-07T13:16:31;19.87;76.43
71436;SHT31;59251;51.326;12.370;2023-08-07T13:18:58;21.12;73.47
71436;SHT31;59251;51.326;12.370;2023-08-07T13:21:26;22.64;69.77
71436;SHT31;59251;51.326;12.370;2023-08-07T13:23:52;21.61;68.42
71436;SHT31;59251;51.326;12.370;2023-08-07T13:26:20;20.94;70.03
71436;SHT31;59251;51.326;12.370;2023-08-07T13:28:47;20.18;71.37
71436;SHT31;59251;51.326;12.370;2023-08-07T13:31:13;19.85;72.28
71436;SHT31;59251;51.326;12.370;2023-08-07T13:33:40;18.72;83.05
71436;SHT31;59251;51.326;12.370;2023-08-07T13:36:07;17.64;88.60
71436;SHT31;59251;51.326;12.370;2023-08-07T13:38:35;17.04;91.41
71436;SHT31;59251;51.326;12.370;2023-08-07T13:41:01;16.77;99.37
71436;SHT31;59251;51.326;12.370;2023-08-07T13:43:28;16.25;94.74
71436;SHT31;59251;51.326;12.370;2023-08-07T13:45:55;15.71;97.70
71436;SHT31;59251;51.326;12.370;2023-08-07T13:48:22;15.65;98.55
71436;SHT31;59251;51.326;12.370;2023-08-07T13:50:51;15.70;98.04
71436;SHT31;59251;51.326;12.370;2023-08-07T13:53:18;15.70;97.89
71436;SHT31;59251;51.326;12.370;2023-08-07T13:55:47;15.55;99.82
71436;SHT31;59251;51.326;12.370;2023-08-07T13:58:14;15.48;99.99
71436;SHT31;59251;51.326;12.370;2023-08-07T14:00:41;15.36;99.99
71436;SHT31;59251;51.326;12.370;2023-08-07T14:03:08;15.43;99.99
71436;SHT31;59251;51.326;12.370;2023-08-07T14:05:35;15.58;99.99
71436;SHT31;59251;51.326;12.370;2023-08-07T14:08:03;15.86;99.99
71436;SHT31;59251;51.326;12.370;2023-08-07T14:10:30;15.93;99.50
71436;SHT31;59251;51.326;12.370;2023-08-07T14:12:58;16.82;99.14
71436;SHT31;59251;51.326;12.370;2023-08-07T14:15:25;16.90;97.35
71436;SHT31;59251;51.326;12.370;2023-08-07T14:17:52;16.72;96.68
71436;SHT31;59251;51.326;12.370;2023-08-07T14:20:18;16.41;93.92
71436;SHT31;59251;51.326;12.370;2023-08-07T14:22:45;16.32;91.51
71436;SHT31;59251;51.326;12.370;2023-08-07T14:25:12;15.42;94.94
71436;SHT31;59251;51.326;12.370;2023-08-07T14:27:39;15.21;97.65
71436;SHT31;59251;51.326;12.370;2023-08-07T14:30:08;15.05;98.38
71436;SHT31;59251;51.326;12.370;2023-08-07T14:32:34;14.93;97.48
71436;SHT31;59251;51.326;12.370;2023-08-07T14:35:01;14.72;99.63
71436;SHT31;59251;51.326;12.370;2023-08-07T14:37:28;14.46;99.99
71436;SHT31;59251;51.326;12.370;2023-08-07T14:39:55;14.50;99.99
71436;SHT31;59251;51.326;12.370;2023-08-07T14:42:23;14.42;99.99
71436;SHT31;59251;51.326;12.370;2023-08-07T14:44:49;14.53;99.99
71436;SHT31;59251;51.326;12.370;2023-08-07T14:47:17;14.85;99.99
71436;SHT31;59251;51.326;12.370;2023-08-07T14:49:44;15.31;99.99
71436;SHT31;59251;51.326;12.370;2023-08-07T14:52:11;15.71;97.96
71436;SHT31;59251;51.326;12.370;2023-08-07T14:54:37;16.01;96.94
71436;SHT31;59251;51.326;12.370;2023-08-07T14:57:04;16.89;95.70
71436;SHT31;59251;51.326;12.370;2023-08-07T14:59:31;17.19;94.89
71436;SHT31;59251;51.326;12.370;2023-08-07T15:01:58;17.17;93.68
71436;SHT31;59251;51.326;12.370;2023-08-07T15:04:25;17.67;93.38
71436;SHT31;59251;51.326;12.370;2023-08-07T15:06:52;18.13;91.29
71436;SHT31;59251;51.326;12.370;2023-08-07T15:09:19;18.47;88.20
71436;SHT31;59251;51.326;12.370;2023-08-07T15:11:45;18.25;90.29
71436;SHT31;59251;51.326;12.370;2023-08-07T15:14:12;19.34;87.15
71436;SHT31;59251;51.326;12.370;2023-08-07T15:16:39;19.49;81.13